Time;durP1;ratioP1;P1;durP2;ratioP2;P2;SDS_P1;SDS_P2;PMS_P1;PMS_P2;Temp;Humidity;BMP_temperature;BMP_pressure;BME280_temperature;BME280_humidity;BME280_pressure;Samples;Min_cycle;Max_cycle;Signal;HPM_P1;HPM_P2
2023/03/29 00:28:54;;;;;;;;;;;5.00;99.90;;;;;;5978606;22;5498222;-91
2023/03/29 00:31:50;;;;;;;;;;;6.60;99.90;;;;;;6129423;23;19920;-91
2023/03/29 00:35:04;;;;;;;;;;;3.20;99.90;;;;;;6085453;23;19929;-91
2023/03/29 00:48:30;;;;;;;;;;;3.10;99.90;;;;;;6096951;23;20335;-92
2023/03/29 00:51:09;;;;;;;;;;;5.50;99.90;;;;;;6021211;23;19953;-91
2023/03/29 00:53:48;;;;;;;;;;;5.40;99.90;;;;;;6012614;23;19956;-90
2023/03/29 00:56:43;;;;;;;;;;;8.00;99.90;;;;;;6106706;23;20326;-91
2023/03/29 00:59:12;;;;;;;;;;;5.30;99.90;;;;;;6103946;23;19943;-88
2023/03/29 01:02:01;;;;;;;;;;;3.00;99.90;;;;;;6135068;23;20014;-90
2023/03/29 01:07:56;;;;;;;;;;;4.80;99.90;;;;;;6094885;23;20290;-90
2023/03/29 01:13:58;;;;;;;;;;;5.70;99.90;;;;;;6076834;23;19925;-91
2023/03/29 01:16:54;;;;;;;;;;;5.80;99.90;;;;;;6084691;23;19972;-91
2023/03/29 01:19:46;;;;;;;;;;;5.10;99.90;;;;;;6081450;23;19964;-89
2023/03/29 01:25:18;;;;;;;;;;;8.00;99.90;;;;;;6156438;23;19925;-90
2023/03/29 01:31:24;;;;;;;;;;;5.70;99.90;;;;;;6176216;23;19928;-91
2023/03/29 01:34:24;;;;;;;;;;;5.10;99.90;;;;;;6162773;23;19995;-91
2023/03/29 01:40:37;;;;;;;;;;;;;;;;;;;;;
2023/03/29 01:43:11;;;;;;;;;;;4.10;99.90;;;;;;6162861;23;19999;-91
2023/03/29 01:46:17;;;;;;;;;;;;;;;;;;;;;
2023/03/29 01:49:41;;;;;;;;;;;;;;;;;;;;;
2023/03/29 01:55:54;;;;;;;;;;;5.30;99.90;;;;;;6142463;23;19943;-91
2023/03/29 01:58:43;;;;;;;;;;;5.30;99.90;;;;;;6147799;23;19924;-91
2023/03/29 02:01:31;;;;;;;;;;;8.10;99.90;;;;;;6159506;23;19928;-90
2023/03/29 02:04:11;;;;;;;;;;;3.50;99.90;;;;;;6160515;23;19921;-91
2023/03/29 02:07:18;;;;;;;;;;;;;;;;;;;;;
2023/03/29 02:16:45;;;;;;;;;;;5.50;99.90;;;;;;6186531;23;20006;-91
2023/03/29 02:20:00;;;;;;;;;;;;;;;;;;;;;
2023/03/29 02:22:53;;;;;;;;;;;;;;;;;;;;;
2023/03/29 02:31:17;;;;;;;;;;;5.50;99.90;;;;;;6159378;23;19924;-90
2023/03/29 02:43:05;;;;;;;;;;;5.30;99.90;;;;;;6133338;23;19950;-92
2023/03/29 02:45:39;;;;;;;;;;;3.20;99.90;;;;;;6139300;23;19927;-91
2023/03/29 02:48:22;;;;;;;;;;;5.90;99.90;;;;;;6162777;23;19920;-91
2023/03/29 02:51:04;;;;;;;;;;;5.20;99.90;;;;;;6159206;23;19928;-92
2023/03/29 02:56:56;;;;;;;;;;;5.00;99.90;;;;;;6175006;23;19927;-92
2023/03/29 02:59:34;;;;;;;;;;;6.20;99.90;;;;;;6159345;23;19975;-92
2023/03/29 03:02:28;;;;;;;;;;;5.30;99.90;;;;;;6159064;23;19995;-91
2023/03/29 03:05:12;;;;;;;;;;;5.40;99.90;;;;;;6158666;23;19927;-91
2023/03/29 03:10:45;;;;;;;;;;;6.00;99.90;;;;;;6150960;23;20330;-92
2023/03/29 03:13:50;;;;;;;;;;;5.00;99.90;;;;;;6160780;23;19999;-92
2023/03/29 03:16:45;;;;;;;;;;;4.10;99.90;;;;;;6140582;23;20253;-91
2023/03/29 03:19:09;;;;;;;;;;;5.50;99.90;;;;;;6162064;23;19927;-92
2023/03/29 03:21:45;;;;;;;;;;;5.10;99.90;;;;;;6159168;23;19924;-92
2023/03/29 03:24:19;;;;;;;;;;;5.40;99.90;;;;;;6158698;23;20414;-92
2023/03/29 03:26:57;;;;;;;;;;;5.50;99.90;;;;;;6139059;23;20335;-92
2023/03/29 03:29:31;;;;;;;;;;;4.40;99.90;;;;;;6157602;23;20012;-91
2023/03/29 03:32:13;;;;;;;;;;;7.50;99.90;;;;;;6140320;23;19927;-91
2023/03/29 03:34:52;;;;;;;;;;;5.30;99.90;;;;;;6159720;23;19928;-93
2023/03/29 03:38:21;;;;;;;;;;;3.20;99.90;;;;;;6184147;23;19920;-92
2023/03/29 03:41:00;;;;;;;;;;;5.90;99.90;;;;;;6172963;23;19920;-91
2023/03/29 03:43:41;;;;;;;;;;;;;;;;;;;;;
2023/03/29 03:46:27;;;;;;;;;;;5.30;99.90;;;;;;6181099;23;19936;-92
2023/03/29 03:49:13;;;;;;;;;;;5.60;99.90;;;;;;6166313;23;19993;-92
2023/03/29 03:51:45;;;;;;;;;;;5.10;99.90;;;;;;6176384;23;19924;-92
2023/03/29 03:54:28;;;;;;;;;;;5.00;99.90;;;;;;6184317;23;19912;-92
2023/03/29 03:57:16;;;;;;;;;;;5.50;99.90;;;;;;6206595;23;19928;-91
2023/03/29 03:59:48;;;;;;;;;;;5.50;99.90;;;;;;6186670;23;19931;-92
2023/03/29 04:05:19;;;;;;;;;;;6.80;99.90;;;;;;6210485;23;19948;-91
2023/03/29 04:08:08;;;;;;;;;;;5.10;99.90;;;;;;6187010;23;19919;-92
2023/03/29 04:10:51;;;;;;;;;;;5.20;99.90;;;;;;6181725;23;19920;-92
2023/03/29 04:13:48;;;;;;;;;;;;;;;;;;;;;
2023/03/29 04:19:45;;;;;;;;;;;;;;;;;;;;;
2023/03/29 04:22:11;;;;;;;;;;;5.90;99.90;;;;;;6185062;23;19920;-90
2023/03/29 04:24:44;;;;;;;;;;;5.20;99.90;;;;;;6160462;23;19920;-89
2023/03/29 04:27:20;;;;;;;;;;;3.00;99.90;;;;;;6139608;23;19986;-91
2023/03/29 04:29:56;;;;;;;;;;;5.30;99.90;;;;;;6142790;23;19920;-91
2023/03/29 04:32:49;;;;;;;;;;;5.60;99.90;;;;;;6159061;23;19999;-92
2023/03/29 04:35:19;;;;;;;;;;;3.10;99.90;;;;;;6162637;23;19920;-92
2023/03/29 04:38:08;;;;;;;;;;;5.90;99.90;;;;;;6136631;23;19971;-92
2023/03/29 04:40:42;;;;;;;;;;;5.30;99.90;;;;;;6135797;23;19927;-92
2023/03/29 04:43:36;;;;;;;;;;;5.40;99.90;;;;;;6184195;23;19934;-92
2023/03/29 04:46:16;;;;;;;;;;;3.80;99.90;;;;;;6160238;23;19921;-92
2023/03/29 04:48:47;;;;;;;;;;;5.40;99.90;;;;;;6159169;23;20319;-91
2023/03/29 04:51:15;;;;;;;;;;;5.20;99.90;;;;;;6183819;23;19920;-92
2023/03/29 04:54:01;;;;;;;;;;;5.20;99.90;;;;;;6159392;23;19955;-90
2023/03/29 04:56:55;;;;;;;;;;;;;;;;;;;;;
2023/03/29 04:59:32;;;;;;;;;;;5.80;99.90;;;;;;6183892;23;20323;-90
2023/03/29 05:02:09;;;;;;;;;;;3.00;99.90;;;;;;6161011;23;19927;-88
2023/03/29 05:04:48;;;;;;;;;;;;;;;;;;;;;
2023/03/29 05:07:20;;;;;;;;;;;5.50;99.90;;;;;;6185506;23;19920;-89
2023/03/29 05:10:07;;;;;;;;;;;;;;;;;;;;;
2023/03/29 05:13:19;;;;;;;;;;;;;;;;;;;;;
2023/03/29 05:19:20;;;;;;;;;;;5.20;99.90;;;;;;6093998;23;19921;-92
2023/03/29 05:24:43;;;;;;;;;;;6.10;99.90;;;;;;6099546;23;19932;-90
2023/03/29 05:27:13;;;;;;;;;;;4.30;99.90;;;;;;6076733;23;19921;-90
2023/03/29 05:29:52;;;;;;;;;;;5.80;99.90;;;;;;6120298;23;19963;-90
2023/03/29 05:32:28;;;;;;;;;;;6.50;99.90;;;;;;6159831;23;19962;-90
2023/03/29 05:35:27;;;;;;;;;;;;;;;;;;;;;
2023/03/29 05:38:04;;;;;;;;;;;5.50;99.90;;;;;;6179209;23;20202;-91
2023/03/29 05:40:31;;;;;;;;;;;3.00;99.90;;;;;;6136107;23;19971;-90
2023/03/29 05:43:02;;;;;;;;;;;5.30;99.90;;;;;;6160063;23;19921;-92
2023/03/29 05:48:36;;;;;;;;;;;5.50;99.90;;;;;;6140008;23;19920;-91
2023/03/29 05:51:22;;;;;;;;;;;7.60;99.90;;;;;;6153495;23;19938;-93
2023/03/29 05:53:59;;;;;;;;;;;5.40;99.90;;;;;;6138730;23;20236;-91
2023/03/29 05:56:30;;;;;;;;;;;5.50;99.90;;;;;;6160220;23;19920;-90
2023/03/29 05:58:55;;;;;;;;;;;5.40;99.90;;;;;;6135601;23;19924;-90
2023/03/29 06:01:23;;;;;;;;;;;5.80;99.90;;;;;;6159960;23;19927;-89
2023/03/29 06:04:07;;;;;;;;;;;;;;;;;;;;;
2023/03/29 06:07:03;;;;;;;;;;;;;;;;;;;;;
2023/03/29 06:12:52;;;;;;;;;;;;;;;;;;;;;
2023/03/29 06:15:18;;;;;;;;;;;5.50;99.90;;;;;;6161906;23;20323;-90
2023/03/29 06:17:55;;;;;;;;;;;3.40;99.90;;;;;;6161866;23;19998;-91
2023/03/29 06:20:27;;;;;;;;;;;5.70;99.90;;;;;;6159376;23;20357;-91
2023/03/29 06:22:55;;;;;;;;;;;5.80;99.90;;;;;;6159883;23;20000;-91
2023/03/29 06:25:27;;;;;;;;;;;5.70;99.90;;;;;;6159728;23;19951;-90
2023/03/29 06:27:53;;;;;;;;;;;5.60;99.90;;;;;;6159328;23;19921;-91
2023/03/29 06:30:26;;;;;;;;;;;5.60;99.90;;;;;;6159825;23;19971;-91
2023/03/29 06:32:56;;;;;;;;;;;6.50;99.90;;;;;;6159489;23;19952;-91
2023/03/29 06:35:22;;;;;;;;;;;6.70;99.90;;;;;;6159829;23;19956;-90
2023/03/29 06:37:52;;;;;;;;;;;5.90;99.90;;;;;;6160109;23;19920;-90
2023/03/29 06:40:38;;;;;;;;;;;5.90;99.90;;;;;;6158789;23;19927;-91
2023/03/29 06:46:19;;;;;;;;;;;6.30;99.90;;;;;;6119122;23;19924;-91
2023/03/29 06:48:47;;;;;;;;;;;3.90;99.90;;;;;;6166758;23;19921;-92
2023/03/29 06:51:18;;;;;;;;;;;5.80;99.90;;;;;;6171987;23;19984;-90
2023/03/29 06:53:43;;;;;;;;;;;5.90;99.90;;;;;;6163702;23;19924;-90
2023/03/29 06:56:16;;;;;;;;;;;6.10;99.90;;;;;;6167946;23;19927;-88
2023/03/29 06:58:45;;;;;;;;;;;5.80;99.90;;;;;;6168906;23;19921;-89
2023/03/29 07:01:12;;;;;;;;;;;6.20;99.90;;;;;;6161662;23;20008;-89
2023/03/29 07:03:47;;;;;;;;;;;5.90;99.90;;;;;;6160609;23;19920;-89
2023/03/29 07:06:16;;;;;;;;;;;6.60;99.90;;;;;;6160997;23;19920;-90
2023/03/29 07:08:59;;;;;;;;;;;6.20;99.90;;;;;;6160922;23;19920;-90
2023/03/29 07:11:28;;;;;;;;;;;9.00;99.90;;;;;;6136783;23;19920;-89
2023/03/29 07:13:54;;;;;;;;;;;6.00;99.90;;;;;;6160752;23;19991;-93
2023/03/29 07:16:37;;;;;;;;;;;3.80;99.90;;;;;;6161247;23;19920;-93
2023/03/29 07:19:07;;;;;;;;;;;6.60;99.90;;;;;;6163375;23;19920;-94
2023/03/29 07:21:33;;;;;;;;;;;6.80;99.90;;;;;;6186652;23;19924;-95
2023/03/29 07:23:59;;;;;;;;;;;4.50;99.90;;;;;;6166430;23;19925;-94
2023/03/29 07:26:25;;;;;;;;;;;6.40;99.90;;;;;;6182076;23;19935;-92
2023/03/29 07:28:56;;;;;;;;;;;6.50;99.90;;;;;;6187557;23;20378;-96
2023/03/29 07:31:45;;;;;;;;;;;6.40;99.90;;;;;;6186170;23;19920;-95
2023/03/29 07:34:10;;;;;;;;;;;6.80;99.90;;;;;;6164316;23;19927;-94
2023/03/29 07:36:37;;;;;;;;;;;5.90;99.90;;;;;;6160974;23;19921;-95
2023/03/29 07:39:04;;;;;;;;;;;7.10;99.90;;;;;;6160846;23;19947;-95
2023/03/29 07:41:30;;;;;;;;;;;6.60;99.90;;;;;;6160052;23;20327;-93
2023/03/29 07:43:58;;;;;;;;;;;6.90;99.90;;;;;;6159122;23;19939;-96
2023/03/29 07:46:28;;;;;;;;;;;6.60;99.90;;;;;;6158742;23;19956;-95
2023/03/29 07:48:56;;;;;;;;;;;6.60;99.90;;;;;;6160663;23;19951;-93
2023/03/29 07:51:25;;;;;;;;;;;6.80;99.90;;;;;;6161550;23;19999;-95
2023/03/29 07:53:51;;;;;;;;;;;8.90;99.90;;;;;;6160019;23;19931;-96
2023/03/29 07:56:20;;;;;;;;;;;6.80;99.90;;;;;;6159671;23;19920;-93
2023/03/29 07:58:46;;;;;;;;;;;9.40;99.90;;;;;;6160236;23;19959;-91
2023/03/29 08:01:14;;;;;;;;;;;6.70;99.90;;;;;;6160067;23;19920;-95
2023/03/29 08:03:49;;;;;;;;;;;5.50;99.90;;;;;;6161202;23;19991;-95
2023/03/29 08:06:15;;;;;;;;;;;6.80;99.90;;;;;;6172679;23;19927;-95
2023/03/29 08:08:46;;;;;;;;;;;7.80;99.90;;;;;;6177509;23;19948;-91
2023/03/29 08:11:27;;;;;;;;;;;6.80;99.90;;;;;;6156184;23;19960;-92
2023/03/29 08:13:55;;;;;;;;;;;7.20;99.90;;;;;;6186073;23;19908;-92
2023/03/29 08:18:54;;;;;;;;;;;5.50;99.90;;;;;;6196463;23;19920;-91
2023/03/29 08:21:20;;;;;;;;;;;7.10;99.90;;;;;;6166655;23;19927;-92
2023/03/29 08:23:45;;;;;;;;;;;7.10;99.90;;;;;;6120626;23;19920;-92
2023/03/29 08:26:12;;;;;;;;;;;7.20;99.90;;;;;;6143453;23;19920;-92
2023/03/29 08:28:38;;;;;;;;;;;7.30;99.90;;;;;;6145293;23;19927;-96
2023/03/29 08:31:08;;;;;;;;;;;7.30;99.90;;;;;;6143019;23;19920;-94
2023/03/29 08:33:34;;;;;;;;;;;7.50;99.90;;;;;;6145160;23;19920;-95
2023/03/29 08:36:03;;;;;;;;;;;7.60;99.90;;;;;;6142958;23;19927;-94
2023/03/29 08:38:32;;;;;;;;;;;7.70;99.90;;;;;;6122005;23;19924;-94
2023/03/29 08:41:00;;;;;;;;;;;7.90;99.90;;;;;;6144324;23;19920;-94
2023/03/29 08:43:29;;;;;;;;;;;8.00;99.90;;;;;;6170787;23;19984;-94
2023/03/29 08:46:13;;;;;;;;;;;7.70;99.90;;;;;;6169780;23;19920;-94
2023/03/29 08:49:02;;;;;;;;;;;7.80;99.90;;;;;;6179419;23;19926;-96
2023/03/29 08:51:39;;;;;;;;;;;7.30;99.90;;;;;;6155714;23;19920;-90
2023/03/29 08:54:09;;;;;;;;;;;10.20;99.90;;;;;;6136428;23;19983;-92
2023/03/29 08:56:36;;;;;;;;;;;8.60;99.90;;;;;;6159714;23;19928;-90
2023/03/29 08:59:02;;;;;;;;;;;8.30;99.90;;;;;;6160304;23;19975;-91
2023/03/29 09:01:38;;;;;;;;;;;8.60;99.90;;;;;;6160646;23;19928;-94
2023/03/29 09:04:20;;;;;;;;;;;8.40;99.90;;;;;;6161686;23;20322;-92
2023/03/29 09:06:53;;;;;;;;;;;8.40;99.90;;;;;;6163057;23;20382;-94
2023/03/29 09:09:20;;;;;;;;;;;7.20;99.90;;;;;;6160207;23;19927;-92
2023/03/29 09:11:58;;;;;;;;;;;8.50;99.90;;;;;;6137141;23;20242;-95
2023/03/29 09:14:53;;;;;;;;;;;;;;;;;;;;;
2023/03/29 09:17:51;;;;;;;;;;;;;;;;;;;;;
2023/03/29 09:20:32;;;;;;;;;;;8.70;99.90;;;;;;6167145;23;20384;-94
2023/03/29 09:22:58;;;;;;;;;;;8.60;99.90;;;;;;6158411;23;19948;-93
2023/03/29 09:25:47;;;;;;;;;;;9.10;99.90;;;;;;6140068;23;19920;-95
2023/03/29 09:28:56;;;;;;;;;;;9.10;99.90;;;;;;6137906;23;19920;-94
2023/03/29 09:31:21;;;;;;;;;;;9.70;99.90;;;;;;6157148;23;19920;-94
2023/03/29 09:33:58;;;;;;;;;;;9.30;99.90;;;;;;6160960;23;19920;-94
2023/03/29 09:36:35;;;;;;;;;;;9.10;99.90;;;;;;6161055;23;19920;-91
2023/03/29 09:39:04;;;;;;;;;;;9.50;99.90;;;;;;6136114;23;19920;-92
2023/03/29 09:41:58;;;;;;;;;;;9.50;99.90;;;;;;6159867;23;19921;-93
2023/03/29 09:44:27;;;;;;;;;;;9.70;99.90;;;;;;6111583;23;19926;-95
2023/03/29 09:47:03;;;;;;;;;;;9.50;99.90;;;;;;6160446;23;19920;-88
2023/03/29 09:49:31;;;;;;;;;;;9.60;99.90;;;;;;6160667;23;20015;-94
2023/03/29 09:52:02;;;;;;;;;;;9.70;99.90;;;;;;6165275;23;19986;-93
2023/03/29 09:54:28;;;;;;;;;;;8.70;99.90;;;;;;6160474;23;20254;-92
2023/03/29 09:56:54;;;;;;;;;;;10.30;99.90;;;;;;6161146;23;19920;-94
2023/03/29 09:59:49;;;;;;;;;;;10.00;99.90;;;;;;6160458;23;20242;-94
2023/03/29 10:02:20;;;;;;;;;;;8.60;99.90;;;;;;6185522;23;20022;-93
2023/03/29 10:05:02;;;;;;;;;;;10.10;99.90;;;;;;6161940;23;19956;-94
2023/03/29 10:07:56;;;;;;;;;;;10.20;99.90;;;;;;6161622;23;19955;-93
2023/03/29 10:10:21;;;;;;;;;;;9.10;99.90;;;;;;6160345;23;20301;-94
2023/03/29 10:12:54;;;;;;;;;;;10.40;99.90;;;;;;6160447;23;19972;-92
2023/03/29 10:15:22;;;;;;;;;;;10.20;99.90;;;;;;6159889;23;19920;-93
2023/03/29 10:17:56;;;;;;;;;;;10.30;99.90;;;;;;6135370;23;20225;-91
2023/03/29 10:20:31;;;;;;;;;;;10.50;99.90;;;;;;6160723;23;19928;-94
2023/03/29 10:23:00;;;;;;;;;;;10.40;99.90;;;;;;6184868;23;19943;-93
2023/03/29 10:25:43;;;;;;;;;;;10.50;99.90;;;;;;6160285;23;19920;-90
2023/03/29 10:28:29;;;;;;;;;;;11.10;99.90;;;;;;6159822;23;19921;-92
2023/03/29 10:31:16;;;;;;;;;;;10.50;99.90;;;;;;6158908;23;19928;-93
2023/03/29 10:34:07;;;;;;;;;;;10.80;99.90;;;;;;6157460;23;19974;-92
2023/03/29 10:39:47;;;;;;;;;;;10.90;99.90;;;;;;6167729;23;19920;-92
2023/03/29 10:42:25;;;;;;;;;;;10.60;99.90;;;;;;6159811;23;19920;-91
2023/03/29 10:45:13;;;;;;;;;;;10.70;99.90;;;;;;6159780;23;20498;-93
2023/03/29 10:57:05;;;;;;;;;;;10.60;99.90;;;;;;6118357;23;20246;-92
2023/03/29 11:06:29;;;;;;;;;;;;;;;;;;;;;
2023/03/29 11:09:01;;;;;;;;;;;12.00;99.90;;;;;;6183011;23;19998;-92
2023/03/29 11:22:24;;;;;;;;;;;13.80;99.90;;;;;;6047846;23;20304;-94
2023/03/29 11:25:07;;;;;;;;;;;12.70;99.90;;;;;;5988338;23;19977;-90
2023/03/29 11:27:48;;;;;;;;;;;12.60;99.90;;;;;;6041332;23;19928;-90
2023/03/29 11:30:20;;;;;;;;;;;12.50;99.90;;;;;;6183238;23;19920;-88
2023/03/29 11:32:49;;;;;;;;;;;12.70;99.90;;;;;;6157980;23;19971;-87
2023/03/29 11:35:33;;;;;;;;;;;12.80;99.90;;;;;;6159002;23;19999;-88
2023/03/29 11:38:05;;;;;;;;;;;12.80;99.90;;;;;;6183126;23;19975;-87
2023/03/29 11:40:34;;;;;;;;;;;12.90;99.90;;;;;;6157464;23;19986;-88
2023/03/29 11:43:03;;;;;;;;;;;12.90;99.90;;;;;;6183143;23;19924;-88
2023/03/29 11:45:35;;;;;;;;;;;12.90;99.90;;;;;;6183586;23;19920;-88
2023/03/29 11:48:03;;;;;;;;;;;12.80;99.90;;;;;;6183549;23;20403;-88
2023/03/29 11:50:45;;;;;;;;;;;12.70;99.90;;;;;;6183528;23;19920;-88
2023/03/29 11:53:14;;;;;;;;;;;12.70;99.90;;;;;;6183346;23;20224;-88
2023/03/29 11:55:43;;;;;;;;;;;12.80;99.90;;;;;;6157957;23;19920;-88
2023/03/29 11:58:14;;;;;;;;;;;12.80;99.90;;;;;;6183021;23;19972;-88
2023/03/29 12:00:51;;;;;;;;;;;12.80;99.90;;;;;;6159129;23;19920;-88
2023/03/29 12:03:38;;;;;;;;;;;12.90;99.90;;;;;;6183222;23;20002;-88
2023/03/29 12:06:10;;;;;;;;;;;13.10;99.90;;;;;;6184559;23;19943;-88
2023/03/29 12:08:47;;;;;;;;;;;13.00;99.90;;;;;;6192069;23;19951;-91
2023/03/29 12:11:19;;;;;;;;;;;13.10;99.90;;;;;;6207508;23;19915;-90
2023/03/29 12:13:48;;;;;;;;;;;13.20;99.90;;;;;;6202327;23;19920;-88
2023/03/29 12:16:18;;;;;;;;;;;13.20;99.90;;;;;;6205373;23;19956;-89
2023/03/29 12:18:48;;;;;;;;;;;13.30;99.90;;;;;;6207104;23;19920;-90
2023/03/29 12:21:20;;;;;;;;;;;13.30;99.90;;;;;;6207836;23;19908;-92
2023/03/29 12:23:47;;;;;;;;;;;13.40;99.90;;;;;;6207041;23;19927;-88
2023/03/29 12:26:22;;;;;;;;;;;13.50;99.90;;;;;;6156173;23;19967;-88
2023/03/29 12:29:03;;;;;;;;;;;13.70;99.90;;;;;;6203290;23;19943;-87
2023/03/29 12:31:38;;;;;;;;;;;13.80;99.90;;;;;;6159815;23;19999;-88
2023/03/29 12:34:22;;;;;;;;;;;13.80;99.90;;;;;;6184040;23;20461;-87
2023/03/29 12:37:11;;;;;;;;;;;13.80;99.90;;;;;;6159546;23;19935;-87
2023/03/29 12:39:37;;;;;;;;;;;13.70;99.90;;;;;;6130522;23;19921;-89
2023/03/29 12:42:22;;;;;;;;;;;13.60;99.90;;;;;;6184028;23;20173;-88
2023/03/29 12:44:57;;;;;;;;;;;13.60;99.90;;;;;;6183628;23;19951;-87
2023/03/29 12:47:25;;;;;;;;;;;13.60;99.90;;;;;;6183598;23;19927;-87
2023/03/29 12:49:55;;;;;;;;;;;13.50;99.90;;;;;;6183645;23;20335;-87
2023/03/29 12:52:26;;;;;;;;;;;13.50;99.90;;;;;;6158417;23;20053;-88
2023/03/29 12:54:57;;;;;;;;;;;13.60;99.90;;;;;;6158371;23;20010;-87
2023/03/29 12:57:27;;;;;;;;;;;13.60;99.90;;;;;;6183455;23;20345;-88
2023/03/29 12:59:53;;;;;;;;;;;13.60;99.90;;;;;;6183342;23;19924;-88
2023/03/29 13:02:33;;;;;;;;;;;13.70;99.90;;;;;;6158167;23;19920;-88
2023/03/29 13:05:00;;;;;;;;;;;13.70;99.90;;;;;;6183498;23;20323;-88
2023/03/29 13:07:31;;;;;;;;;;;13.70;99.90;;;;;;6159018;23;19926;-88
2023/03/29 13:09:56;;;;;;;;;;;13.70;99.90;;;;;;6158549;23;19930;-88
2023/03/29 13:12:25;;;;;;;;;;;13.70;99.90;;;;;;6183631;23;20003;-88
2023/03/29 13:14:55;;;;;;;;;;;13.70;99.90;;;;;;6184703;23;20003;-90
2023/03/29 13:17:20;;;;;;;;;;;13.70;99.90;;;;;;6158724;23;19936;-88
2023/03/29 13:20:02;;;;;;;;;;;13.70;99.90;;;;;;6183202;23;19920;-88
2023/03/29 13:22:43;;;;;;;;;;;13.70;99.90;;;;;;6183124;23;19924;-88
2023/03/29 13:25:24;;;;;;;;;;;13.60;99.90;;;;;;6184204;23;20227;-87
2023/03/29 13:28:00;;;;;;;;;;;13.60;99.90;;;;;;6159889;23;19931;-87
2023/03/29 13:30:34;;;;;;;;;;;13.50;99.90;;;;;;6184974;23;19927;-88
2023/03/29 13:33:19;;;;;;;;;;;13.50;99.90;;;;;;6184780;23;20000;-88
2023/03/29 13:35:54;;;;;;;;;;;13.50;99.90;;;;;;6159718;23;19921;-87
2023/03/29 13:38:22;;;;;;;;;;;13.50;99.90;;;;;;6160311;23;19921;-89
2023/03/29 13:40:51;;;;;;;;;;;13.50;99.90;;;;;;6159345;23;19995;-89
2023/03/29 13:43:20;;;;;;;;;;;12.20;99.90;;;;;;6184562;23;19921;-89
2023/03/29 13:45:57;;;;;;;;;;;13.60;99.90;;;;;;6159696;23;19924;-88
2023/03/29 13:48:27;;;;;;;;;;;13.70;99.90;;;;;;6185158;23;20061;-88
2023/03/29 13:51:00;;;;;;;;;;;13.70;99.90;;;;;;6161431;23;19999;-88
2023/03/29 13:53:36;;;;;;;;;;;13.70;99.90;;;;;;6184568;23;19931;-87
2023/03/29 13:56:01;;;;;;;;;;;13.80;99.90;;;;;;6183903;23;20027;-89
2023/03/29 13:58:36;;;;;;;;;;;13.80;99.90;;;;;;6135204;23;20000;-87
2023/03/29 14:01:08;;;;;;;;;;;13.90;99.90;;;;;;6185011;23;19928;-88
2023/03/29 14:03:45;;;;;;;;;;;14.00;99.90;;;;;;6159225;23;19920;-89
2023/03/29 14:06:15;;;;;;;;;;;14.00;99.90;;;;;;6159974;23;19928;-90
2023/03/29 14:08:42;;;;;;;;;;;14.10;99.90;;;;;;6159227;23;19967;-90
2023/03/29 14:11:15;;;;;;;;;;;14.20;99.90;;;;;;6159702;23;19920;-88
2023/03/29 14:13:42;;;;;;;;;;;14.20;99.90;;;;;;6159343;23;19931;-89
2023/03/29 14:16:09;;;;;;;;;;;14.60;99.90;;;;;;6135163;23;19966;-89
2023/03/29 14:18:36;;;;;;;;;;;14.60;99.90;;;;;;6185019;23;19920;-89
2023/03/29 14:21:02;;;;;;;;;;;14.90;99.90;;;;;;6159627;23;19979;-88
2023/03/29 14:23:29;;;;;;;;;;;14.50;99.90;;;;;;6135273;23;19920;-88
2023/03/29 14:26:04;;;;;;;;;;;12.70;99.90;;;;;;6159061;23;19924;-89
2023/03/29 14:28:38;;;;;;;;;;;14.60;99.90;;;;;;6159529;23;19969;-89
2023/03/29 14:31:06;;;;;;;;;;;15.10;99.90;;;;;;6136771;23;19995;-87
2023/03/29 14:33:33;;;;;;;;;;;14.80;99.90;;;;;;6158925;23;20303;-84
2023/03/29 14:36:03;;;;;;;;;;;14.80;99.90;;;;;;6159374;23;19950;-85
2023/03/29 14:38:29;;;;;;;;;;;14.80;99.90;;;;;;6184458;23;19971;-87
2023/03/29 14:40:59;;;;;;;;;;;14.70;99.90;;;;;;6183270;23;19920;-87
2023/03/29 14:43:29;;;;;;;;;;;14.70;99.90;;;;;;6183901;23;19924;-88
2023/03/29 14:45:55;;;;;;;;;;;14.60;99.90;;;;;;6183667;23;19954;-88
2023/03/29 14:48:21;;;;;;;;;;;14.60;99.90;;;;;;6158696;23;19924;-88
2023/03/29 14:50:46;;;;;;;;;;;14.70;99.90;;;;;;6183525;23;19927;-88
2023/03/29 14:53:17;;;;;;;;;;;14.70;99.90;;;;;;6184044;23;19926;-87
2023/03/29 14:55:44;;;;;;;;;;;14.40;99.90;;;;;;6183007;23;19928;-88
2023/03/29 14:58:33;;;;;;;;;;;14.60;99.90;;;;;;6184408;23;19963;-87
2023/03/29 15:01:06;;;;;;;;;;;14.50;99.90;;;;;;6151826;23;19920;-88
2023/03/29 15:04:02;;;;;;;;;;;14.60;99.90;;;;;;6184792;23;19928;-87
2023/03/29 15:06:28;;;;;;;;;;;14.60;99.90;;;;;;6161266;23;19959;-87
2023/03/29 15:09:00;;;;;;;;;;;14.60;99.90;;;;;;6158255;23;19920;-88
2023/03/29 15:11:27;;;;;;;;;;;14.50;99.90;;;;;;6183729;23;20331;-88
2023/03/29 15:13:59;;;;;;;;;;;14.60;99.90;;;;;;6159716;23;19920;-88
2023/03/29 15:16:26;;;;;;;;;;;14.60;99.90;;;;;;6158775;23;19920;-88
2023/03/29 15:18:51;;;;;;;;;;;14.40;99.90;;;;;;6184181;23;20333;-88
2023/03/29 15:21:21;;;;;;;;;;;14.40;99.90;;;;;;6134419;23;19951;-87
2023/03/29 15:23:52;;;;;;;;;;;14.50;99.90;;;;;;6158826;23;19927;-89
2023/03/29 15:26:22;;;;;;;;;;;14.30;99.90;;;;;;6158573;23;19920;-88
2023/03/29 15:28:53;;;;;;;;;;;14.40;99.90;;;;;;6183206;23;19925;-89
2023/03/29 15:31:22;;;;;;;;;;;14.60;99.90;;;;;;6159264;23;19921;-88
2023/03/29 15:33:47;;;;;;;;;;;14.20;99.90;;;;;;6182949;23;19920;-87
2023/03/29 15:36:16;;;;;;;;;;;14.10;99.90;;;;;;6183694;23;19959;-88
2023/03/29 15:38:42;;;;;;;;;;;14.20;99.90;;;;;;6158321;23;20311;-88
2023/03/29 15:41:08;;;;;;;;;;;14.20;99.90;;;;;;6183123;23;19950;-87
2023/03/29 15:43:36;;;;;;;;;;;13.90;99.90;;;;;;6158508;23;20223;-88
2023/03/29 15:46:02;;;;;;;;;;;13.80;99.90;;;;;;6183367;23;19978;-87
2023/03/29 15:48:28;;;;;;;;;;;13.70;99.90;;;;;;6158818;23;19951;-88
2023/03/29 15:50:53;;;;;;;;;;;13.70;99.90;;;;;;6158430;23;19952;-88
2023/03/29 15:53:20;;;;;;;;;;;13.60;99.90;;;;;;6158706;23;19920;-87
2023/03/29 15:55:47;;;;;;;;;;;14.40;99.90;;;;;;6157349;23;19920;-88
2023/03/29 15:58:14;;;;;;;;;;;13.60;99.90;;;;;;6157998;23;19927;-88
2023/03/29 16:00:42;;;;;;;;;;;13.50;99.90;;;;;;6184096;23;20309;-88
2023/03/29 16:03:10;;;;;;;;;;;13.50;99.90;;;;;;6158339;23;19924;-87
2023/03/29 16:05:36;;;;;;;;;;;13.50;99.90;;;;;;6186592;23;19921;-88
2023/03/29 16:08:02;;;;;;;;;;;13.50;99.90;;;;;;6182533;23;19926;-88
2023/03/29 16:10:27;;;;;;;;;;;13.40;99.90;;;;;;6156970;23;20331;-89
2023/03/29 16:12:53;;;;;;;;;;;13.40;99.90;;;;;;6182810;23;20220;-87
2023/03/29 16:15:20;;;;;;;;;;;13.40;99.90;;;;;;6141111;23;19966;-88
2023/03/29 16:17:46;;;;;;;;;;;13.40;99.90;;;;;;6200154;23;19947;-88
2023/03/29 16:20:18;;;;;;;;;;;13.30;99.90;;;;;;6177550;23;19974;-88
2023/03/29 16:22:45;;;;;;;;;;;13.30;99.90;;;;;;6170774;23;20326;-87
2023/03/29 16:25:12;;;;;;;;;;;13.30;99.90;;;;;;6165390;23;20247;-88
2023/03/29 16:27:38;;;;;;;;;;;13.30;99.90;;;;;;6165727;23;20372;-87
2023/03/29 16:30:04;;;;;;;;;;;13.30;99.90;;;;;;6188553;23;19921;-87
2023/03/29 16:32:30;;;;;;;;;;;13.20;99.90;;;;;;6186736;23;19924;-89
2023/03/29 16:34:57;;;;;;;;;;;13.20;99.90;;;;;;6158937;23;20103;-88
2023/03/29 16:37:25;;;;;;;;;;;13.20;99.90;;;;;;6184177;23;20013;-91
2023/03/29 16:40:06;;;;;;;;;;;11.00;99.90;;;;;;6159192;23;19924;-93
2023/03/29 16:50:02;;;;;;;;;;;;;;;;;;;;;
2023/03/29 16:53:56;;;;;;;;;;;13.30;99.90;;;;;;6189711;23;19920;-93
2023/03/29 17:04:15;;;;;;;;;;;11.20;99.90;;;;;;6067006;23;19961;-95
2023/03/29 17:06:44;;;;;;;;;;;13.50;99.90;;;;;;6044395;23;20370;-92
2023/03/29 17:09:20;;;;;;;;;;;;;;;;;;;;;
2023/03/29 17:11:49;;;;;;;;;;;12.90;99.90;;;;;;6199592;23;19919;-92
2023/03/29 17:14:26;;;;;;;;;;;12.30;99.90;;;;;;6171299;23;19920;-96
2023/03/29 17:16:55;;;;;;;;;;;12.50;99.90;;;;;;6166421;23;19924;-95
2023/03/29 17:19:52;;;;;;;;;;;12.30;99.90;;;;;;6166023;23;20022;-95
2023/03/29 17:22:09;;;;;;;;;;;12.10;99.90;;;;;;6183335;23;19920;-92
2023/03/29 17:28:11;;;;;;;;;;;;;;;;;;;;;
2023/03/29 17:31:34;;;;;;;;;;;;;;;;;;;;;
2023/03/29 17:40:48;;;;;;;;;;;12.00;99.90;;;;;;5985842;23;20068;-92
2023/03/29 17:43:11;;;;;;;;;;;12.80;99.90;;;;;;6012280;23;19921;-94
2023/03/29 17:45:47;;;;;;;;;;;;;;;;;;;;;
2023/03/29 17:48:39;;;;;;;;;;;11.70;99.90;;;;;;6014892;23;20004;-94
2023/03/29 17:51:04;;;;;;;;;;;11.90;99.90;;;;;;6038010;23;19920;-94
2023/03/29 17:53:30;;;;;;;;;;;12.20;99.90;;;;;;6076121;23;19921;-95
2023/03/29 17:59:25;;;;;;;;;;;11.50;99.90;;;;;;6098906;23;19925;-93
2023/03/29 18:02:17;;;;;;;;;;;11.50;99.90;;;;;;6143379;23;20384;-96
2023/03/29 18:08:16;;;;;;;;;;;11.70;99.90;;;;;;6166586;23;19967;-94
2023/03/29 18:10:47;;;;;;;;;;;13.30;99.90;;;;;;6164585;23;19920;-93
2023/03/29 18:23:51;;;;;;;;;;;;;;;;;;;;;
2023/03/29 18:30:05;;;;;;;;;;;13.70;99.90;;;;;;6099957;23;19921;-94
2023/03/29 18:33:09;;;;;;;;;;;11.40;99.90;;;;;;6073514;23;19992;-94
2023/03/29 18:39:07;;;;;;;;;;;11.10;99.90;;;;;;6058764;23;19936;-93
2023/03/29 18:41:36;;;;;;;;;;;11.20;99.90;;;;;;6127038;23;19990;-87
2023/03/29 18:44:02;;;;;;;;;;;11.10;99.90;;;;;;6161748;23;19974;-88
2023/03/29 18:46:31;;;;;;;;;;;11.00;99.90;;;;;;6188168;23;19920;-87
2023/03/29 18:48:58;;;;;;;;;;;11.00;99.90;;;;;;6188429;23;20318;-86